sensor_id;sensor_type;location;lat;lon;timestamp;P1;durP1;ratioP1;P2;durP2;ratioP2
8312;SDS011;4194;43.408;24.626;2022-07-29T00:01:32;8.90;;;7.97;;
8312;SDS011;4194;43.408;24.626;2022-07-29T00:03:57;8.13;;;7.43;;
8312;SDS011;4194;43.408;24.626;2022-07-29T00:06:23;8.80;;;6.80;;
8312;SDS011;4194;43.408;24.626;2022-07-29T00:08:49;7.50;;;6.77;;
8312;SDS011;4194;43.408;24.626;2022-07-29T00:11:15;9.30;;;7.77;;
8312;SDS011;4194;43.408;24.626;2022-07-29T00:13:40;7.87;;;6.90;;
8312;SDS011;4194;43.408;24.626;2022-07-29T00:16:06;8.87;;;7.90;;
8312;SDS011;4194;43.408;24.626;2022-07-29T00:18:32;10.60;;;7.90;;
8312;SDS011;4194;43.408;24.626;2022-07-29T00:20:57;8.33;;;7.53;;
8312;SDS011;4194;43.408;24.626;2022-07-29T00:23:23;8.67;;;7.87;;
8312;SDS011;4194;43.408;24.626;2022-07-29T00:25:49;7.70;;;6.90;;
8312;SDS011;4194;43.408;24.626;2022-07-29T00:28:15;10.73;;;7.47;;
8312;SDS011;4194;43.408;24.626;2022-07-29T00:30:40;8.47;;;7.63;;
8312;SDS011;4194;43.408;24.626;2022-07-29T00:33:08;8.70;;;7.80;;
8312;SDS011;4194;43.408;24.626;2022-07-29T00:35:34;7.90;;;7.20;;
8312;SDS011;4194;43.408;24.626;2022-07-29T00:38:08;8.70;;;7.77;;
8312;SDS011;4194;43.408;24.626;2022-07-29T00:40:41;10.17;;;7.27;;
8312;SDS011;4194;43.408;24.626;2022-07-29T00:43:08;10.47;;;7.50;;
8312;SDS011;4194;43.408;24.626;2022-07-29T00:45:34;8.27;;;7.57;;
8312;SDS011;4194;43.408;24.626;2022-07-29T00:48:00;9.47;;;8.47;;
8312;SDS011;4194;43.408;24.626;2022-07-29T00:50:28;10.40;;;7.70;;
8312;SDS011;4194;43.408;24.626;2022-07-29T00:52:54;8.33;;;7.53;;
8312;SDS011;4194;43.408;24.626;2022-07-29T00:55:21;9.43;;;7.27;;
8312;SDS011;4194;43.408;24.626;2022-07-29T00:57:47;9.50;;;7.80;;
8312;SDS011;4194;43.408;24.626;2022-07-29T01:00:16;10.50;;;7.90;;
8312;SDS011;4194;43.408;24.626;2022-07-29T01:02:44;10.27;;;8.17;;
8312;SDS011;4194;43.408;24.626;2022-07-29T01:05:13;9.27;;;7.07;;
8312;SDS011;4194;43.408;24.626;2022-07-29T01:07:41;8.43;;;7.70;;
8312;SDS011;4194;43.408;24.626;2022-07-29T01:10:07;9.73;;;8.77;;
8312;SDS011;4194;43.408;24.626;2022-07-29T01:12:35;9.00;;;7.80;;
8312;SDS011;4194;43.408;24.626;2022-07-29T01:15:03;8.00;;;7.20;;
8312;SDS011;4194;43.408;24.626;2022-07-29T01:32:26;9.17;;;7.97;;
8312;SDS011;4194;43.408;24.626;2022-07-29T01:40:16;11.33;;;8.27;;
8312;SDS011;4194;43.408;24.626;2022-07-29T01:42:54;9.17;;;8.37;;
8312;SDS011;4194;43.408;24.626;2022-07-29T01:50:52;8.63;;;7.67;;
8312;SDS011;4194;43.408;24.626;2022-07-29T01:53:26;12.17;;;8.30;;
8312;SDS011;4194;43.408;24.626;2022-07-29T01:56:00;8.83;;;7.93;;
8312;SDS011;4194;43.408;24.626;2022-07-29T01:58:28;10.47;;;8.40;;
8312;SDS011;4194;43.408;24.626;2022-07-29T02:00:57;12.33;;;8.70;;
8312;SDS011;4194;43.408;24.626;2022-07-29T02:03:23;9.50;;;8.23;;
8312;SDS011;4194;43.408;24.626;2022-07-29T02:05:51;10.97;;;8.27;;
8312;SDS011;4194;43.408;24.626;2022-07-29T02:08:20;9.50;;;8.70;;
8312;SDS011;4194;43.408;24.626;2022-07-29T02:10:48;11.80;;;8.00;;
8312;SDS011;4194;43.408;24.626;2022-07-29T02:13:15;9.30;;;8.40;;
8312;SDS011;4194;43.408;24.626;2022-07-29T02:15:43;9.40;;;8.50;;
8312;SDS011;4194;43.408;24.626;2022-07-29T02:18:12;11.03;;;8.77;;
8312;SDS011;4194;43.408;24.626;2022-07-29T02:20:44;10.70;;;9.70;;
8312;SDS011;4194;43.408;24.626;2022-07-29T02:23:13;12.47;;;10.40;;
8312;SDS011;4194;43.408;24.626;2022-07-29T02:25:48;11.97;;;10.87;;
8312;SDS011;4194;43.408;24.626;2022-07-29T02:28:16;13.70;;;11.70;;
8312;SDS011;4194;43.408;24.626;2022-07-29T02:30:44;15.07;;;11.40;;
8312;SDS011;4194;43.408;24.626;2022-07-29T02:33:12;11.63;;;10.50;;
8312;SDS011;4194;43.408;24.626;2022-07-29T02:35:40;12.27;;;11.07;;
8312;SDS011;4194;43.408;24.626;2022-07-29T02:38:12;11.20;;;10.07;;
8312;SDS011;4194;43.408;24.626;2022-07-29T02:41:03;10.63;;;9.57;;
8312;SDS011;4194;43.408;24.626;2022-07-29T02:43:31;11.87;;;9.10;;
8312;SDS011;4194;43.408;24.626;2022-07-29T02:45:58;11.60;;;9.70;;
8312;SDS011;4194;43.408;24.626;2022-07-29T02:48:32;11.07;;;9.60;;
8312;SDS011;4194;43.408;24.626;2022-07-29T02:51:06;13.00;;;10.33;;
8312;SDS011;4194;43.408;24.626;2022-07-29T02:53:37;11.67;;;9.70;;
8312;SDS011;4194;43.408;24.626;2022-07-29T02:56:04;10.37;;;9.10;;
8312;SDS011;4194;43.408;24.626;2022-07-29T02:58:45;9.53;;;8.13;;
8312;SDS011;4194;43.408;24.626;2022-07-29T03:01:15;13.00;;;8.80;;
8312;SDS011;4194;43.408;24.626;2022-07-29T03:03:42;9.30;;;8.37;;
8312;SDS011;4194;43.408;24.626;2022-07-29T03:06:10;9.90;;;8.10;;
8312;SDS011;4194;43.408;24.626;2022-07-29T03:08:39;9.53;;;8.57;;
8312;SDS011;4194;43.408;24.626;2022-07-29T03:11:05;9.93;;;9.03;;
8312;SDS011;4194;43.408;24.626;2022-07-29T03:13:33;10.30;;;8.60;;
8312;SDS011;4194;43.408;24.626;2022-07-29T03:16:00;9.73;;;8.73;;
8312;SDS011;4194;43.408;24.626;2022-07-29T03:18:27;9.23;;;8.33;;
8312;SDS011;4194;43.408;24.626;2022-07-29T03:20:54;10.30;;;9.20;;
8312;SDS011;4194;43.408;24.626;2022-07-29T03:23:20;12.03;;;9.10;;
8312;SDS011;4194;43.408;24.626;2022-07-29T03:25:51;10.33;;;8.83;;
8312;SDS011;4194;43.408;24.626;2022-07-29T03:28:17;10.23;;;9.00;;
8312;SDS011;4194;43.408;24.626;2022-07-29T03:30:43;10.37;;;8.57;;
8312;SDS011;4194;43.408;24.626;2022-07-29T03:33:09;11.37;;;9.37;;
8312;SDS011;4194;43.408;24.626;2022-07-29T03:35:35;9.50;;;8.50;;
8312;SDS011;4194;43.408;24.626;2022-07-29T03:38:00;12.87;;;8.83;;
8312;SDS011;4194;43.408;24.626;2022-07-29T03:40:37;10.33;;;8.73;;
8312;SDS011;4194;43.408;24.626;2022-07-29T03:43:07;9.90;;;8.57;;
8312;SDS011;4194;43.408;24.626;2022-07-29T03:45:35;10.40;;;8.17;;
8312;SDS011;4194;43.408;24.626;2022-07-29T03:48:05;11.03;;;9.13;;
8312;SDS011;4194;43.408;24.626;2022-07-29T03:50:35;9.10;;;8.30;;
8312;SDS011;4194;43.408;24.626;2022-07-29T03:53:01;12.73;;;8.40;;
8312;SDS011;4194;43.408;24.626;2022-07-29T03:55:28;12.50;;;7.90;;
8312;SDS011;4194;43.408;24.626;2022-07-29T03:57:57;9.13;;;8.17;;
8312;SDS011;4194;43.408;24.626;2022-07-29T04:00:25;12.07;;;8.53;;
8312;SDS011;4194;43.408;24.626;2022-07-29T04:02:52;9.50;;;8.53;;
8312;SDS011;4194;43.408;24.626;2022-07-29T04:05:18;9.40;;;8.57;;
8312;SDS011;4194;43.408;24.626;2022-07-29T04:07:44;11.83;;;8.43;;
8312;SDS011;4194;43.408;24.626;2022-07-29T04:10:10;10.23;;;8.50;;
8312;SDS011;4194;43.408;24.626;2022-07-29T04:12:36;9.63;;;8.57;;
8312;SDS011;4194;43.408;24.626;2022-07-29T04:15:03;9.83;;;8.93;;
8312;SDS011;4194;43.408;24.626;2022-07-29T04:17:29;9.67;;;8.73;;
8312;SDS011;4194;43.408;24.626;2022-07-29T04:19:55;8.73;;;7.93;;
8312;SDS011;4194;43.408;24.626;2022-07-29T04:22:21;8.40;;;7.57;;
8312;SDS011;4194;43.408;24.626;2022-07-29T04:24:47;8.63;;;7.77;;
8312;SDS011;4194;43.408;24.626;2022-07-29T04:27:12;9.37;;;8.33;;
8312;SDS011;4194;43.408;24.626;2022-07-29T04:29:38;9.27;;;7.70;;
8312;SDS011;4194;43.408;24.626;2022-07-29T04:32:04;8.67;;;7.87;;
8312;SDS011;4194;43.408;24.626;2022-07-29T04:34:30;8.73;;;7.70;;
8312;SDS011;4194;43.408;24.626;2022-07-29T04:36:56;11.47;;;7.97;;
8312;SDS011;4194;43.408;24.626;2022-07-29T04:39:22;8.40;;;7.57;;
8312;SDS011;4194;43.408;24.626;2022-07-29T04:41:48;9.43;;;7.27;;
8312;SDS011;4194;43.408;24.626;2022-07-29T04:44:15;9.37;;;7.20;;
8312;SDS011;4194;43.408;24.626;2022-07-29T04:46:40;8.60;;;7.47;;
8312;SDS011;4194;43.408;24.626;2022-07-29T04:49:06;7.50;;;6.80;;
8312;SDS011;4194;43.408;24.626;2022-07-29T04:51:32;8.73;;;7.20;;
8312;SDS011;4194;43.408;24.626;2022-07-29T04:53:58;7.63;;;6.83;;
8312;SDS011;4194;43.408;24.626;2022-07-29T04:56:24;7.27;;;6.53;;
8312;SDS011;4194;43.408;24.626;2022-07-29T04:58:50;7.37;;;6.50;;
8312;SDS011;4194;43.408;24.626;2022-07-29T05:01:16;8.17;;;6.97;;
8312;SDS011;4194;43.408;24.626;2022-07-29T05:03:41;7.63;;;6.83;;
8312;SDS011;4194;43.408;24.626;2022-07-29T05:06:07;8.50;;;6.50;;
8312;SDS011;4194;43.408;24.626;2022-07-29T05:08:33;8.93;;;6.23;;
8312;SDS011;4194;43.408;24.626;2022-07-29T05:10:58;7.93;;;6.40;;
8312;SDS011;4194;43.408;24.626;2022-07-29T05:13:24;6.47;;;5.87;;
8312;SDS011;4194;43.408;24.626;2022-07-29T05:15:50;14.37;;;6.43;;
8312;SDS011;4194;43.408;24.626;2022-07-29T05:18:15;7.63;;;6.90;;
8312;SDS011;4194;43.408;24.626;2022-07-29T05:20:41;8.87;;;7.60;;
8312;SDS011;4194;43.408;24.626;2022-07-29T05:23:07;8.60;;;7.37;;
8312;SDS011;4194;43.408;24.626;2022-07-29T05:25:32;9.33;;;6.23;;
8312;SDS011;4194;43.408;24.626;2022-07-29T05:27:58;7.03;;;6.43;;
8312;SDS011;4194;43.408;24.626;2022-07-29T05:30:24;8.93;;;6.60;;
8312;SDS011;4194;43.408;24.626;2022-07-29T05:32:50;10.90;;;6.40;;
8312;SDS011;4194;43.408;24.626;2022-07-29T05:35:16;9.80;;;7.53;;
8312;SDS011;4194;43.408;24.626;2022-07-29T05:37:42;9.23;;;6.83;;
8312;SDS011;4194;43.408;24.626;2022-07-29T05:40:08;7.97;;;6.70;;
8312;SDS011;4194;43.408;24.626;2022-07-29T05:42:35;9.53;;;7.13;;
8312;SDS011;4194;43.408;24.626;2022-07-29T05:45:01;11.07;;;6.30;;
8312;SDS011;4194;43.408;24.626;2022-07-29T05:47:27;7.63;;;6.87;;
8312;SDS011;4194;43.408;24.626;2022-07-29T05:49:53;7.20;;;6.57;;
8312;SDS011;4194;43.408;24.626;2022-07-29T05:52:20;7.20;;;6.47;;
8312;SDS011;4194;43.408;24.626;2022-07-29T05:54:45;9.57;;;7.23;;
8312;SDS011;4194;43.408;24.626;2022-07-29T05:57:18;10.60;;;6.70;;
8312;SDS011;4194;43.408;24.626;2022-07-29T05:59:46;6.67;;;6.07;;
8312;SDS011;4194;43.408;24.626;2022-07-29T06:02:13;10.93;;;6.60;;
8312;SDS011;4194;43.408;24.626;2022-07-29T06:04:39;7.47;;;6.73;;
8312;SDS011;4194;43.408;24.626;2022-07-29T06:07:05;9.57;;;6.83;;
8312;SDS011;4194;43.408;24.626;2022-07-29T06:09:31;9.17;;;7.03;;
8312;SDS011;4194;43.408;24.626;2022-07-29T06:11:57;7.77;;;6.20;;
8312;SDS011;4194;43.408;24.626;2022-07-29T06:14:23;7.57;;;6.30;;
8312;SDS011;4194;43.408;24.626;2022-07-29T06:16:49;7.77;;;6.03;;
8312;SDS011;4194;43.408;24.626;2022-07-29T06:19:15;8.60;;;5.83;;
8312;SDS011;4194;43.408;24.626;2022-07-29T06:21:46;8.07;;;6.37;;
8312;SDS011;4194;43.408;24.626;2022-07-29T06:24:13;9.10;;;6.33;;
8312;SDS011;4194;43.408;24.626;2022-07-29T06:26:40;7.00;;;6.23;;
8312;SDS011;4194;43.408;24.626;2022-07-29T06:29:07;7.97;;;6.43;;
8312;SDS011;4194;43.408;24.626;2022-07-29T06:31:35;6.67;;;6.07;;
8312;SDS011;4194;43.408;24.626;2022-07-29T06:34:01;6.17;;;5.50;;
8312;SDS011;4194;43.408;24.626;2022-07-29T06:36:27;6.10;;;5.50;;
8312;SDS011;4194;43.408;24.626;2022-07-29T06:38:53;6.70;;;6.07;;
8312;SDS011;4194;43.408;24.626;2022-07-29T06:41:19;7.10;;;6.43;;
8312;SDS011;4194;43.408;24.626;2022-07-29T06:43:45;6.50;;;5.87;;
8312;SDS011;4194;43.408;24.626;2022-07-29T06:46:12;7.50;;;5.97;;
8312;SDS011;4194;43.408;24.626;2022-07-29T06:48:40;7.70;;;5.80;;
8312;SDS011;4194;43.408;24.626;2022-07-29T06:51:08;8.00;;;6.20;;
8312;SDS011;4194;43.408;24.626;2022-07-29T06:53:34;6.53;;;5.80;;
8312;SDS011;4194;43.408;24.626;2022-07-29T06:56:01;8.57;;;5.93;;
8312;SDS011;4194;43.408;24.626;2022-07-29T06:58:27;10.40;;;6.20;;
8312;SDS011;4194;43.408;24.626;2022-07-29T07:00:53;8.23;;;6.07;;
8312;SDS011;4194;43.408;24.626;2022-07-29T07:03:19;8.13;;;6.10;;
8312;SDS011;4194;43.408;24.626;2022-07-29T07:05:45;5.93;;;5.43;;
8312;SDS011;4194;43.408;24.626;2022-07-29T07:08:11;6.27;;;5.67;;
8312;SDS011;4194;43.408;24.626;2022-07-29T07:10:37;11.67;;;6.00;;
8312;SDS011;4194;43.408;24.626;2022-07-29T07:13:03;6.93;;;6.33;;
8312;SDS011;4194;43.408;24.626;2022-07-29T07:15:29;7.40;;;6.00;;
8312;SDS011;4194;43.408;24.626;2022-07-29T07:17:56;11.70;;;6.13;;
8312;SDS011;4194;43.408;24.626;2022-07-29T07:20:22;10.13;;;5.80;;
8312;SDS011;4194;43.408;24.626;2022-07-29T07:22:48;7.03;;;5.50;;
8312;SDS011;4194;43.408;24.626;2022-07-29T07:25:14;8.93;;;6.00;;
8312;SDS011;4194;43.408;24.626;2022-07-29T07:27:42;8.00;;;5.53;;
8312;SDS011;4194;43.408;24.626;2022-07-29T07:30:08;7.73;;;5.87;;
8312;SDS011;4194;43.408;24.626;2022-07-29T07:32:34;9.67;;;5.50;;
8312;SDS011;4194;43.408;24.626;2022-07-29T07:35:01;12.00;;;5.60;;
8312;SDS011;4194;43.408;24.626;2022-07-29T07:37:28;8.00;;;6.00;;
8312;SDS011;4194;43.408;24.626;2022-07-29T07:39:53;8.57;;;5.57;;
8312;SDS011;4194;43.408;24.626;2022-07-29T07:42:19;9.60;;;6.20;;
8312;SDS011;4194;43.408;24.626;2022-07-29T07:44:45;9.20;;;5.93;;
8312;SDS011;4194;43.408;24.626;2022-07-29T07:47:13;7.27;;;5.43;;
8312;SDS011;4194;43.408;24.626;2022-07-29T07:49:39;7.97;;;5.93;;
8312;SDS011;4194;43.408;24.626;2022-07-29T07:52:05;8.70;;;5.37;;
8312;SDS011;4194;43.408;24.626;2022-07-29T07:54:31;7.67;;;6.00;;
8312;SDS011;4194;43.408;24.626;2022-07-29T07:56:57;7.03;;;5.17;;
8312;SDS011;4194;43.408;24.626;2022-07-29T07:59:22;7.83;;;5.90;;
8312;SDS011;4194;43.408;24.626;2022-07-29T08:01:48;9.67;;;5.30;;
8312;SDS011;4194;43.408;24.626;2022-07-29T08:04:14;10.90;;;6.17;;
8312;SDS011;4194;43.408;24.626;2022-07-29T08:06:40;7.20;;;5.50;;
8312;SDS011;4194;43.408;24.626;2022-07-29T08:09:06;8.27;;;5.40;;
8312;SDS011;4194;43.408;24.626;2022-07-29T08:11:32;8.20;;;6.13;;
8312;SDS011;4194;43.408;24.626;2022-07-29T08:13:58;9.50;;;5.30;;
8312;SDS011;4194;43.408;24.626;2022-07-29T08:16:26;7.87;;;5.53;;
8312;SDS011;4194;43.408;24.626;2022-07-29T08:18:52;6.17;;;5.57;;
8312;SDS011;4194;43.408;24.626;2022-07-29T08:21:22;9.00;;;6.30;;
8312;SDS011;4194;43.408;24.626;2022-07-29T08:23:48;12.03;;;6.50;;
8312;SDS011;4194;43.408;24.626;2022-07-29T08:26:17;7.90;;;5.93;;
8312;SDS011;4194;43.408;24.626;2022-07-29T08:28:44;7.07;;;5.53;;
8312;SDS011;4194;43.408;24.626;2022-07-29T08:31:11;10.47;;;5.73;;
8312;SDS011;4194;43.408;24.626;2022-07-29T08:33:37;7.77;;;5.83;;
8312;SDS011;4194;43.408;24.626;2022-07-29T08:36:03;6.77;;;5.60;;
8312;SDS011;4194;43.408;24.626;2022-07-29T08:38:29;9.30;;;5.77;;
8312;SDS011;4194;43.408;24.626;2022-07-29T08:40:55;8.90;;;5.93;;
8312;SDS011;4194;43.408;24.626;2022-07-29T08:43:21;7.17;;;6.13;;
8312;SDS011;4194;43.408;24.626;2022-07-29T08:45:48;7.97;;;5.87;;
8312;SDS011;4194;43.408;24.626;2022-07-29T08:48:18;7.13;;;5.93;;
8312;SDS011;4194;43.408;24.626;2022-07-29T08:50:46;10.17;;;5.90;;
8312;SDS011;4194;43.408;24.626;2022-07-29T08:53:15;8.57;;;5.60;;
8312;SDS011;4194;43.408;24.626;2022-07-29T08:55:42;6.80;;;6.10;;
8312;SDS011;4194;43.408;24.626;2022-07-29T08:58:09;8.33;;;5.90;;
8312;SDS011;4194;43.408;24.626;2022-07-29T09:00:37;9.33;;;5.77;;
8312;SDS011;4194;43.408;24.626;2022-07-29T09:03:07;9.13;;;6.37;;
8312;SDS011;4194;43.408;24.626;2022-07-29T09:05:37;7.07;;;5.70;;
8312;SDS011;4194;43.408;24.626;2022-07-29T09:08:06;8.10;;;6.50;;
8312;SDS011;4194;43.408;24.626;2022-07-29T09:10:34;8.37;;;6.53;;
8312;SDS011;4194;43.408;24.626;2022-07-29T09:13:00;10.50;;;6.10;;
8312;SDS011;4194;43.408;24.626;2022-07-29T09:15:26;7.33;;;5.60;;
8312;SDS011;4194;43.408;24.626;2022-07-29T09:17:52;7.60;;;5.20;;
8312;SDS011;4194;43.408;24.626;2022-07-29T09:20:18;8.30;;;6.27;;
8312;SDS011;4194;43.408;24.626;2022-07-29T09:22:47;8.10;;;6.20;;
8312;SDS011;4194;43.408;24.626;2022-07-29T09:25:37;8.13;;;5.97;;
8312;SDS011;4194;43.408;24.626;2022-07-29T09:28:14;7.00;;;6.37;;
8312;SDS011;4194;43.408;24.626;2022-07-29T09:30:53;9.27;;;6.20;;
8312;SDS011;4194;43.408;24.626;2022-07-29T09:33:21;7.20;;;6.30;;
8312;SDS011;4194;43.408;24.626;2022-07-29T09:36:04;8.63;;;6.20;;
8312;SDS011;4194;43.408;24.626;2022-07-29T09:38:31;8.77;;;5.90;;
8312;SDS011;4194;43.408;24.626;2022-07-29T09:40:59;7.07;;;6.13;;
8312;SDS011;4194;43.408;24.626;2022-07-29T09:43:26;7.03;;;5.90;;
8312;SDS011;4194;43.408;24.626;2022-07-29T09:45:52;13.47;;;5.97;;
8312;SDS011;4194;43.408;24.626;2022-07-29T09:48:19;8.65;;;6.28;;
8312;SDS011;4194;43.408;24.626;2022-07-29T09:50:46;8.95;;;6.85;;
8312;SDS011;4194;43.408;24.626;2022-07-29T09:56:09;9.35;;;5.65;;
8312;SDS011;4194;43.408;24.626;2022-07-29T09:58:35;7.10;;;6.28;;
8312;SDS011;4194;43.408;24.626;2022-07-29T10:01:01;7.00;;;6.00;;
8312;SDS011;4194;43.408;24.626;2022-07-29T10:03:28;7.65;;;6.25;;
8312;SDS011;4194;43.408;24.626;2022-07-29T10:08:36;7.30;;;6.53;;
8312;SDS011;4194;43.408;24.626;2022-07-29T10:11:15;6.22;;;5.72;;
8312;SDS011;4194;43.408;24.626;2022-07-29T10:13:43;7.82;;;6.30;;
8312;SDS011;4194;43.408;24.626;2022-07-29T10:16:11;6.03;;;5.43;;
8312;SDS011;4194;43.408;24.626;2022-07-29T10:18:38;7.90;;;6.25;;
8312;SDS011;4194;43.408;24.626;2022-07-29T10:21:05;6.70;;;6.00;;
8312;SDS011;4194;43.408;24.626;2022-07-29T10:23:32;8.32;;;6.13;;
8312;SDS011;4194;43.408;24.626;2022-07-29T10:25:59;7.80;;;6.68;;
8312;SDS011;4194;43.408;24.626;2022-07-29T10:28:25;6.55;;;5.93;;
8312;SDS011;4194;43.408;24.626;2022-07-29T10:30:52;11.48;;;5.38;;
8312;SDS011;4194;43.408;24.626;2022-07-29T10:42:05;10.77;;;5.50;;
8312;SDS011;4194;43.408;24.626;2022-07-29T10:44:34;5.28;;;4.70;;
8312;SDS011;4194;43.408;24.626;2022-07-29T10:47:00;6.85;;;5.10;;
8312;SDS011;4194;43.408;24.626;2022-07-29T10:49:26;9.32;;;6.05;;
8312;SDS011;4194;43.408;24.626;2022-07-29T10:59:39;5.90;;;5.30;;
8312;SDS011;4194;43.408;24.626;2022-07-29T11:05:12;6.60;;;6.00;;
8312;SDS011;4194;43.408;24.626;2022-07-29T11:07:40;7.07;;;5.90;;
8312;SDS011;4194;43.408;24.626;2022-07-29T11:10:42;7.60;;;5.45;;
8312;SDS011;4194;43.408;24.626;2022-07-29T11:13:08;10.23;;;4.20;;
8312;SDS011;4194;43.408;24.626;2022-07-29T11:15:53;5.45;;;4.30;;
8312;SDS011;4194;43.408;24.626;2022-07-29T11:18:22;6.38;;;4.72;;
8312;SDS011;4194;43.408;24.626;2022-07-29T11:20:49;5.70;;;4.43;;
8312;SDS011;4194;43.408;24.626;2022-07-29T11:26:16;6.30;;;4.15;;
8312;SDS011;4194;43.408;24.626;2022-07-29T11:31:41;4.53;;;3.95;;
8312;SDS011;4194;43.408;24.626;2022-07-29T11:39:34;6.35;;;3.30;;
8312;SDS011;4194;43.408;24.626;2022-07-29T11:45:04;4.00;;;3.60;;
8312;SDS011;4194;43.408;24.626;2022-07-29T11:47:37;4.20;;;3.80;;
8312;SDS011;4194;43.408;24.626;2022-07-29T11:50:06;5.30;;;3.35;;
8312;SDS011;4194;43.408;24.626;2022-07-29T11:52:37;6.00;;;3.15;;
8312;SDS011;4194;43.408;24.626;2022-07-29T11:55:15;7.03;;;3.53;;
8312;SDS011;4194;43.408;24.626;2022-07-29T11:58:15;6.10;;;3.20;;
8312;SDS011;4194;43.408;24.626;2022-07-29T12:03:03;4.32;;;3.67;;
8312;SDS011;4194;43.408;24.626;2022-07-29T12:05:38;4.00;;;3.30;;
8312;SDS011;4194;43.408;24.626;2022-07-29T12:08:19;5.63;;;3.40;;
8312;SDS011;4194;43.408;24.626;2022-07-29T12:10:48;6.80;;;3.28;;
8312;SDS011;4194;43.408;24.626;2022-07-29T12:13:17;4.07;;;3.67;;
8312;SDS011;4194;43.408;24.626;2022-07-29T12:15:51;3.75;;;3.28;;
8312;SDS011;4194;43.408;24.626;2022-07-29T12:18:22;3.83;;;3.15;;
8312;SDS011;4194;43.408;24.626;2022-07-29T12:20:49;6.00;;;3.38;;
8312;SDS011;4194;43.408;24.626;2022-07-29T12:23:28;3.80;;;3.50;;
8312;SDS011;4194;43.408;24.626;2022-07-29T12:25:57;3.55;;;3.33;;
8312;SDS011;4194;43.408;24.626;2022-07-29T12:28:23;3.53;;;3.22;;
8312;SDS011;4194;43.408;24.626;2022-07-29T12:30:50;4.25;;;3.85;;
8312;SDS011;4194;43.408;24.626;2022-07-29T12:33:17;4.00;;;3.50;;
8312;SDS011;4194;43.408;24.626;2022-07-29T12:35:45;3.30;;;3.10;;
8312;SDS011;4194;43.408;24.626;2022-07-29T12:38:13;4.90;;;3.17;;
8312;SDS011;4194;43.408;24.626;2022-07-29T12:40:39;3.75;;;3.28;;
8312;SDS011;4194;43.408;24.626;2022-07-29T12:45:43;3.88;;;3.22;;
8312;SDS011;4194;43.408;24.626;2022-07-29T12:48:10;3.28;;;3.03;;
8312;SDS011;4194;43.408;24.626;2022-07-29T12:50:54;2.92;;;2.72;;
8312;SDS011;4194;43.408;24.626;2022-07-29T12:53:24;8.20;;;2.80;;
8312;SDS011;4194;43.408;24.626;2022-07-29T12:55:51;3.00;;;2.80;;
8312;SDS011;4194;43.408;24.626;2022-07-29T13:01:04;3.17;;;2.95;;
8312;SDS011;4194;43.408;24.626;2022-07-29T13:03:41;3.00;;;2.70;;
8312;SDS011;4194;43.408;24.626;2022-07-29T13:11:45;2.72;;;2.53;;
8312;SDS011;4194;43.408;24.626;2022-07-29T13:14:13;3.92;;;2.80;;
8312;SDS011;4194;43.408;24.626;2022-07-29T13:19:35;3.65;;;3.08;;
8312;SDS011;4194;43.408;24.626;2022-07-29T13:22:09;3.53;;;3.22;;
8312;SDS011;4194;43.408;24.626;2022-07-29T13:24:48;3.25;;;2.95;;
8312;SDS011;4194;43.408;24.626;2022-07-29T13:27:21;4.88;;;2.83;;
8312;SDS011;4194;43.408;24.626;2022-07-29T13:29:48;3.53;;;3.22;;
8312;SDS011;4194;43.408;24.626;2022-07-29T13:32:16;2.95;;;2.75;;
8312;SDS011;4194;43.408;24.626;2022-07-29T13:34:42;2.90;;;2.70;;
8312;SDS011;4194;43.408;24.626;2022-07-29T13:37:07;3.40;;;3.10;;
8312;SDS011;4194;43.408;24.626;2022-07-29T13:39:33;4.30;;;2.78;;
8312;SDS011;4194;43.408;24.626;2022-07-29T13:41:59;3.53;;;3.00;;
8312;SDS011;4194;43.408;24.626;2022-07-29T13:44:25;3.25;;;3.00;;
8312;SDS011;4194;43.408;24.626;2022-07-29T13:46:51;2.90;;;2.70;;
8312;SDS011;4194;43.408;24.626;2022-07-29T13:49:17;3.10;;;2.90;;
8312;SDS011;4194;43.408;24.626;2022-07-29T13:51:43;3.25;;;2.95;;
8312;SDS011;4194;43.408;24.626;2022-07-29T13:54:08;3.15;;;2.90;;
8312;SDS011;4194;43.408;24.626;2022-07-29T13:56:34;3.80;;;3.38;;
8312;SDS011;4194;43.408;24.626;2022-07-29T13:59:00;3.40;;;3.10;;
8312;SDS011;4194;43.408;24.626;2022-07-29T14:01:25;3.05;;;2.85;;
8312;SDS011;4194;43.408;24.626;2022-07-29T14:03:52;4.28;;;3.00;;
8312;SDS011;4194;43.408;24.626;2022-07-29T14:06:18;3.20;;;3.00;;
8312;SDS011;4194;43.408;24.626;2022-07-29T14:08:44;3.10;;;2.90;;
8312;SDS011;4194;43.408;24.626;2022-07-29T14:11:10;3.63;;;3.33;;
8312;SDS011;4194;43.408;24.626;2022-07-29T14:13:35;4.95;;;2.88;;
8312;SDS011;4194;43.408;24.626;2022-07-29T14:16:01;3.42;;;3.22;;
8312;SDS011;4194;43.408;24.626;2022-07-29T14:18:27;3.63;;;3.38;;
8312;SDS011;4194;43.408;24.626;2022-07-29T14:20:53;3.83;;;2.83;;
8312;SDS011;4194;43.408;24.626;2022-07-29T14:23:18;3.30;;;3.00;;
8312;SDS011;4194;43.408;24.626;2022-07-29T14:25:44;4.20;;;2.90;;
8312;SDS011;4194;43.408;24.626;2022-07-29T14:28:10;3.10;;;2.90;;
8312;SDS011;4194;43.408;24.626;2022-07-29T14:30:36;3.03;;;2.83;;
8312;SDS011;4194;43.408;24.626;2022-07-29T14:33:02;2.85;;;2.63;;
8312;SDS011;4194;43.408;24.626;2022-07-29T14:35:28;2.60;;;2.40;;
8312;SDS011;4194;43.408;24.626;2022-07-29T14:37:53;3.53;;;2.60;;
8312;SDS011;4194;43.408;24.626;2022-07-29T14:40:19;2.90;;;2.70;;
8312;SDS011;4194;43.408;24.626;2022-07-29T14:42:45;2.60;;;2.40;;
8312;SDS011;4194;43.408;24.626;2022-07-29T14:45:10;2.95;;;2.63;;
8312;SDS011;4194;43.408;24.626;2022-07-29T14:47:36;3.95;;;3.10;;
8312;SDS011;4194;43.408;24.626;2022-07-29T14:50:03;3.08;;;2.88;;
8312;SDS011;4194;43.408;24.626;2022-07-29T14:52:30;3.15;;;2.90;;
8312;SDS011;4194;43.408;24.626;2022-07-29T14:54:56;2.72;;;2.53;;
8312;SDS011;4194;43.408;24.626;2022-07-29T14:57:22;5.72;;;2.65;;
8312;SDS011;4194;43.408;24.626;2022-07-29T14:59:48;2.45;;;2.33;;
8312;SDS011;4194;43.408;24.626;2022-07-29T15:02:14;2.67;;;2.47;;
8312;SDS011;4194;43.408;24.626;2022-07-29T15:04:40;3.28;;;2.58;;
8312;SDS011;4194;43.408;24.626;2022-07-29T15:07:05;3.42;;;2.22;;
8312;SDS011;4194;43.408;24.626;2022-07-29T15:09:31;2.70;;;2.50;;
8312;SDS011;4194;43.408;24.626;2022-07-29T15:11:57;3.08;;;2.88;;
8312;SDS011;4194;43.408;24.626;2022-07-29T15:14:22;2.65;;;2.22;;
8312;SDS011;4194;43.408;24.626;2022-07-29T15:16:48;2.33;;;2.13;;
8312;SDS011;4194;43.408;24.626;2022-07-29T15:19:14;1.77;;;1.67;;
8312;SDS011;4194;43.408;24.626;2022-07-29T15:21:40;2.42;;;2.22;;
8312;SDS011;4194;43.408;24.626;2022-07-29T15:24:06;2.00;;;1.90;;
8312;SDS011;4194;43.408;24.626;2022-07-29T15:26:32;3.83;;;2.35;;
8312;SDS011;4194;43.408;24.626;2022-07-29T15:28:58;3.53;;;1.92;;
8312;SDS011;4194;43.408;24.626;2022-07-29T15:31:24;2.47;;;2.28;;
8312;SDS011;4194;43.408;24.626;2022-07-29T15:33:50;2.42;;;2.00;;
8312;SDS011;4194;43.408;24.626;2022-07-29T15:36:16;2.20;;;2.03;;
8312;SDS011;4194;43.408;24.626;2022-07-29T15:38:41;2.20;;;1.80;;
8312;SDS011;4194;43.408;24.626;2022-07-29T15:41:09;2.53;;;2.40;;
8312;SDS011;4194;43.408;24.626;2022-07-29T15:43:38;2.67;;;2.30;;
8312;SDS011;4194;43.408;24.626;2022-07-29T15:46:10;3.15;;;2.78;;
8312;SDS011;4194;43.408;24.626;2022-07-29T15:48:56;4.90;;;2.70;;
8312;SDS011;4194;43.408;24.626;2022-07-29T15:51:22;3.63;;;2.42;;
8312;SDS011;4194;43.408;24.626;2022-07-29T15:53:48;3.80;;;2.85;;
8312;SDS011;4194;43.408;24.626;2022-07-29T15:56:14;4.55;;;2.50;;
8312;SDS011;4194;43.408;24.626;2022-07-29T15:58:40;4.90;;;2.70;;
8312;SDS011;4194;43.408;24.626;2022-07-29T16:01:06;3.20;;;2.90;;
8312;SDS011;4194;43.408;24.626;2022-07-29T16:03:32;4.32;;;2.70;;
8312;SDS011;4194;43.408;24.626;2022-07-29T16:05:57;8.27;;;2.90;;
8312;SDS011;4194;43.408;24.626;2022-07-29T16:08:23;3.50;;;2.40;;
8312;SDS011;4194;43.408;24.626;2022-07-29T16:10:49;3.58;;;2.78;;
8312;SDS011;4194;43.408;24.626;2022-07-29T16:13:15;4.38;;;2.90;;
8312;SDS011;4194;43.408;24.626;2022-07-29T16:15:40;4.30;;;2.97;;
8312;SDS011;4194;43.408;24.626;2022-07-29T16:18:06;3.33;;;3.00;;
8312;SDS011;4194;43.408;24.626;2022-07-29T16:20:34;5.70;;;3.28;;
8312;SDS011;4194;43.408;24.626;2022-07-29T16:23:00;8.55;;;3.63;;